sensor_id;sensor_type;location;lat;lon;timestamp;P1;durP1;ratioP1;P2;durP2;ratioP2
71730;SDS011;65964;43.496;3.710;2023-03-23T00:01:47;24.85;;;16.33;;
71730;SDS011;65964;43.496;3.710;2023-03-23T00:04:15;23.08;;;15.77;;
71730;SDS011;65964;43.496;3.710;2023-03-23T00:06:41;24.88;;;16.50;;
71730;SDS011;65964;43.496;3.710;2023-03-23T00:09:10;25.88;;;16.10;;
71730;SDS011;65964;43.496;3.710;2023-03-23T00:11:36;25.45;;;16.35;;
71730;SDS011;65964;43.496;3.710;2023-03-23T00:14:03;22.35;;;15.98;;
71730;SDS011;65964;43.496;3.710;2023-03-23T00:16:30;26.75;;;17.30;;
71730;SDS011;65964;43.496;3.710;2023-03-23T00:18:58;24.17;;;16.98;;
71730;SDS011;65964;43.496;3.710;2023-03-23T00:21:25;26.38;;;17.35;;
71730;SDS011;65964;43.496;3.710;2023-03-23T00:23:58;29.77;;;16.88;;
71730;SDS011;65964;43.496;3.710;2023-03-23T00:26:24;26.95;;;17.58;;
71730;SDS011;65964;43.496;3.710;2023-03-23T00:28:53;40.80;;;22.88;;
71730;SDS011;65964;43.496;3.710;2023-03-23T00:31:19;41.22;;;24.75;;
71730;SDS011;65964;43.496;3.710;2023-03-23T00:33:45;42.83;;;24.02;;
71730;SDS011;65964;43.496;3.710;2023-03-23T00:36:11;31.25;;;19.63;;
71730;SDS011;65964;43.496;3.710;2023-03-23T00:38:38;29.02;;;18.27;;
71730;SDS011;65964;43.496;3.710;2023-03-23T00:41:05;27.58;;;17.35;;
71730;SDS011;65964;43.496;3.710;2023-03-23T00:43:31;28.42;;;17.98;;
71730;SDS011;65964;43.496;3.710;2023-03-23T00:46:00;30.65;;;18.75;;
71730;SDS011;65964;43.496;3.710;2023-03-23T00:48:28;28.67;;;18.63;;
71730;SDS011;65964;43.496;3.710;2023-03-23T00:50:54;29.85;;;18.33;;
71730;SDS011;65964;43.496;3.710;2023-03-23T00:53:21;30.90;;;20.65;;
71730;SDS011;65964;43.496;3.710;2023-03-23T00:55:47;39.53;;;23.90;;
71730;SDS011;65964;43.496;3.710;2023-03-23T00:58:14;28.23;;;19.63;;
71730;SDS011;65964;43.496;3.710;2023-03-23T01:00:41;29.15;;;18.35;;
71730;SDS011;65964;43.496;3.710;2023-03-23T01:03:08;22.67;;;13.65;;
71730;SDS011;65964;43.496;3.710;2023-03-23T01:05:37;20.55;;;12.02;;
71730;SDS011;65964;43.496;3.710;2023-03-23T01:08:04;18.92;;;11.35;;
71730;SDS011;65964;43.496;3.710;2023-03-23T01:10:30;20.77;;;11.10;;
71730;SDS011;65964;43.496;3.710;2023-03-23T01:13:03;19.92;;;8.93;;
71730;SDS011;65964;43.496;3.710;2023-03-23T01:15:30;18.40;;;9.15;;
71730;SDS011;65964;43.496;3.710;2023-03-23T01:17:56;15.32;;;9.48;;
71730;SDS011;65964;43.496;3.710;2023-03-23T01:20:22;15.13;;;9.38;;
71730;SDS011;65964;43.496;3.710;2023-03-23T01:22:48;20.30;;;9.77;;
71730;SDS011;65964;43.496;3.710;2023-03-23T01:25:14;18.63;;;9.60;;
71730;SDS011;65964;43.496;3.710;2023-03-23T01:27:40;16.42;;;8.00;;
71730;SDS011;65964;43.496;3.710;2023-03-23T01:30:07;15.93;;;7.97;;
71730;SDS011;65964;43.496;3.710;2023-03-23T01:32:33;19.80;;;8.32;;
71730;SDS011;65964;43.496;3.710;2023-03-23T01:35:00;17.92;;;8.35;;
71730;SDS011;65964;43.496;3.710;2023-03-23T01:37:26;15.98;;;7.57;;
71730;SDS011;65964;43.496;3.710;2023-03-23T01:39:53;15.48;;;7.50;;
71730;SDS011;65964;43.496;3.710;2023-03-23T01:42:23;18.10;;;7.30;;
71730;SDS011;65964;43.496;3.710;2023-03-23T01:47:16;15.93;;;6.70;;
71730;SDS011;65964;43.496;3.710;2023-03-23T01:49:43;14.48;;;6.90;;
71730;SDS011;65964;43.496;3.710;2023-03-23T01:52:13;19.70;;;8.02;;
71730;SDS011;65964;43.496;3.710;2023-03-23T01:54:42;15.68;;;6.95;;
71730;SDS011;65964;43.496;3.710;2023-03-23T01:57:11;13.20;;;7.30;;
71730;SDS011;65964;43.496;3.710;2023-03-23T01:59:38;15.07;;;7.30;;
71730;SDS011;65964;43.496;3.710;2023-03-23T02:02:08;16.50;;;8.13;;
71730;SDS011;65964;43.496;3.710;2023-03-23T02:04:35;16.05;;;8.07;;
71730;SDS011;65964;43.496;3.710;2023-03-23T02:07:02;13.13;;;7.20;;
71730;SDS011;65964;43.496;3.710;2023-03-23T02:09:28;14.82;;;6.80;;
71730;SDS011;65964;43.496;3.710;2023-03-23T02:11:55;16.42;;;6.28;;
71730;SDS011;65964;43.496;3.710;2023-03-23T02:14:21;17.00;;;7.47;;
71730;SDS011;65964;43.496;3.710;2023-03-23T02:21:54;16.13;;;7.43;;
71730;SDS011;65964;43.496;3.710;2023-03-23T02:27:01;13.10;;;6.55;;
71730;SDS011;65964;43.496;3.710;2023-03-23T02:32:56;13.63;;;7.27;;
71730;SDS011;65964;43.496;3.710;2023-03-23T02:35:08;17.23;;;8.00;;
71730;SDS011;65964;43.496;3.710;2023-03-23T02:37:38;15.65;;;6.65;;
71730;SDS011;65964;43.496;3.710;2023-03-23T02:40:15;14.13;;;6.40;;
71730;SDS011;65964;43.496;3.710;2023-03-23T02:42:46;18.83;;;7.65;;
71730;SDS011;65964;43.496;3.710;2023-03-23T02:45:13;13.70;;;7.20;;
71730;SDS011;65964;43.496;3.710;2023-03-23T02:47:41;16.13;;;7.35;;
71730;SDS011;65964;43.496;3.710;2023-03-23T02:50:08;13.10;;;7.38;;
71730;SDS011;65964;43.496;3.710;2023-03-23T02:52:36;15.90;;;7.05;;
71730;SDS011;65964;43.496;3.710;2023-03-23T02:55:03;13.10;;;6.68;;
71730;SDS011;65964;43.496;3.710;2023-03-23T02:57:29;15.05;;;7.43;;
71730;SDS011;65964;43.496;3.710;2023-03-23T02:59:56;19.05;;;7.65;;
71730;SDS011;65964;43.496;3.710;2023-03-23T03:02:26;15.50;;;7.78;;
71730;SDS011;65964;43.496;3.710;2023-03-23T03:04:57;16.92;;;7.80;;
71730;SDS011;65964;43.496;3.710;2023-03-23T03:09:58;16.35;;;7.93;;
71730;SDS011;65964;43.496;3.710;2023-03-23T03:14:57;12.25;;;6.80;;
71730;SDS011;65964;43.496;3.710;2023-03-23T03:17:26;15.68;;;7.45;;
71730;SDS011;65964;43.496;3.710;2023-03-23T03:19:57;16.55;;;7.38;;
71730;SDS011;65964;43.496;3.710;2023-03-23T03:22:29;15.35;;;6.80;;
71730;SDS011;65964;43.496;3.710;2023-03-23T03:24:58;14.85;;;6.93;;
71730;SDS011;65964;43.496;3.710;2023-03-23T03:27:25;15.38;;;6.63;;
71730;SDS011;65964;43.496;3.710;2023-03-23T03:29:53;13.35;;;6.43;;
71730;SDS011;65964;43.496;3.710;2023-03-23T03:32:22;14.75;;;6.60;;
71730;SDS011;65964;43.496;3.710;2023-03-23T03:34:49;17.50;;;6.80;;
71730;SDS011;65964;43.496;3.710;2023-03-23T03:37:17;14.88;;;7.18;;
71730;SDS011;65964;43.496;3.710;2023-03-23T03:39:45;16.95;;;7.53;;
71730;SDS011;65964;43.496;3.710;2023-03-23T03:42:11;21.67;;;7.55;;
71730;SDS011;65964;43.496;3.710;2023-03-23T03:44:37;14.85;;;7.70;;
71730;SDS011;65964;43.496;3.710;2023-03-23T03:47:03;14.18;;;7.30;;
71730;SDS011;65964;43.496;3.710;2023-03-23T03:49:29;23.33;;;15.52;;
71730;SDS011;65964;43.496;3.710;2023-03-23T03:51:55;30.40;;;16.75;;
71730;SDS011;65964;43.496;3.710;2023-03-23T03:54:21;29.02;;;19.02;;
71730;SDS011;65964;43.496;3.710;2023-03-23T03:56:47;32.53;;;19.52;;
71730;SDS011;65964;43.496;3.710;2023-03-23T03:59:16;28.00;;;18.23;;
71730;SDS011;65964;43.496;3.710;2023-03-23T04:01:42;29.75;;;18.27;;
71730;SDS011;65964;43.496;3.710;2023-03-23T04:04:08;31.88;;;18.92;;
71730;SDS011;65964;43.496;3.710;2023-03-23T04:06:34;31.35;;;19.83;;
71730;SDS011;65964;43.496;3.710;2023-03-23T04:09:03;31.58;;;20.67;;
71730;SDS011;65964;43.496;3.710;2023-03-23T04:11:31;35.97;;;21.88;;
71730;SDS011;65964;43.496;3.710;2023-03-23T04:13:57;33.78;;;19.92;;
71730;SDS011;65964;43.496;3.710;2023-03-23T04:16:23;30.63;;;19.52;;
71730;SDS011;65964;43.496;3.710;2023-03-23T04:18:51;29.10;;;19.08;;
71730;SDS011;65964;43.496;3.710;2023-03-23T04:21:17;29.65;;;19.05;;
71730;SDS011;65964;43.496;3.710;2023-03-23T04:23:43;31.92;;;19.90;;
71730;SDS011;65964;43.496;3.710;2023-03-23T04:26:09;30.02;;;19.30;;
71730;SDS011;65964;43.496;3.710;2023-03-23T04:28:37;29.52;;;19.67;;
71730;SDS011;65964;43.496;3.710;2023-03-23T04:31:03;31.92;;;20.00;;
71730;SDS011;65964;43.496;3.710;2023-03-23T04:33:29;43.05;;;21.85;;
71730;SDS011;65964;43.496;3.710;2023-03-23T04:35:56;30.05;;;19.40;;
71730;SDS011;65964;43.496;3.710;2023-03-23T04:38:23;31.80;;;19.55;;
71730;SDS011;65964;43.496;3.710;2023-03-23T04:40:50;32.58;;;19.23;;
71730;SDS011;65964;43.496;3.710;2023-03-23T04:43:17;28.52;;;20.02;;
71730;SDS011;65964;43.496;3.710;2023-03-23T04:45:46;34.05;;;19.58;;
71730;SDS011;65964;43.496;3.710;2023-03-23T04:48:12;31.38;;;19.35;;
71730;SDS011;65964;43.496;3.710;2023-03-23T04:50:38;31.52;;;20.17;;
71730;SDS011;65964;43.496;3.710;2023-03-23T04:53:05;29.58;;;19.35;;
71730;SDS011;65964;43.496;3.710;2023-03-23T04:55:31;36.58;;;22.08;;
71730;SDS011;65964;43.496;3.710;2023-03-23T04:58:01;33.28;;;19.48;;
71730;SDS011;65964;43.496;3.710;2023-03-23T05:00:27;34.55;;;21.42;;
71730;SDS011;65964;43.496;3.710;2023-03-23T05:02:53;30.15;;;20.00;;
71730;SDS011;65964;43.496;3.710;2023-03-23T05:05:20;30.42;;;19.50;;
71730;SDS011;65964;43.496;3.710;2023-03-23T05:07:46;30.60;;;19.90;;
71730;SDS011;65964;43.496;3.710;2023-03-23T05:10:12;36.50;;;22.27;;
71730;SDS011;65964;43.496;3.710;2023-03-23T05:12:39;30.90;;;20.08;;
71730;SDS011;65964;43.496;3.710;2023-03-23T05:15:05;31.88;;;21.02;;
71730;SDS011;65964;43.496;3.710;2023-03-23T05:17:32;35.03;;;19.92;;
71730;SDS011;65964;43.496;3.710;2023-03-23T05:19:59;38.30;;;25.65;;
71730;SDS011;65964;43.496;3.710;2023-03-23T05:22:28;31.58;;;20.50;;
71730;SDS011;65964;43.496;3.710;2023-03-23T05:24:57;30.85;;;20.65;;
71730;SDS011;65964;43.496;3.710;2023-03-23T05:27:23;31.85;;;20.70;;
71730;SDS011;65964;43.496;3.710;2023-03-23T05:29:52;33.45;;;20.80;;
71730;SDS011;65964;43.496;3.710;2023-03-23T05:32:19;32.17;;;22.63;;
71730;SDS011;65964;43.496;3.710;2023-03-23T05:34:45;37.30;;;22.30;;
71730;SDS011;65964;43.496;3.710;2023-03-23T05:37:11;43.70;;;26.98;;
71730;SDS011;65964;43.496;3.710;2023-03-23T05:39:38;34.92;;;21.35;;
71730;SDS011;65964;43.496;3.710;2023-03-23T05:42:05;32.97;;;20.48;;
71730;SDS011;65964;43.496;3.710;2023-03-23T05:44:32;31.25;;;19.92;;
71730;SDS011;65964;43.496;3.710;2023-03-23T05:46:58;33.53;;;20.58;;
71730;SDS011;65964;43.496;3.710;2023-03-23T05:49:24;33.20;;;20.98;;
71730;SDS011;65964;43.496;3.710;2023-03-23T05:51:51;37.80;;;21.33;;
71730;SDS011;65964;43.496;3.710;2023-03-23T05:54:17;33.15;;;19.73;;
71730;SDS011;65964;43.496;3.710;2023-03-23T05:56:43;31.02;;;20.30;;
71730;SDS011;65964;43.496;3.710;2023-03-23T05:59:09;31.63;;;20.75;;
71730;SDS011;65964;43.496;3.710;2023-03-23T06:01:36;36.03;;;21.13;;
71730;SDS011;65964;43.496;3.710;2023-03-23T06:04:03;32.92;;;20.42;;
71730;SDS011;65964;43.496;3.710;2023-03-23T06:06:29;32.17;;;20.15;;
71730;SDS011;65964;43.496;3.710;2023-03-23T06:08:56;35.35;;;21.40;;
71730;SDS011;65964;43.496;3.710;2023-03-23T06:11:23;33.15;;;21.20;;
71730;SDS011;65964;43.496;3.710;2023-03-23T06:13:49;35.10;;;21.88;;
71730;SDS011;65964;43.496;3.710;2023-03-23T06:16:15;35.42;;;22.58;;
71730;SDS011;65964;43.496;3.710;2023-03-23T06:18:41;34.42;;;22.52;;
71730;SDS011;65964;43.496;3.710;2023-03-23T06:21:08;35.45;;;22.90;;
71730;SDS011;65964;43.496;3.710;2023-03-23T06:23:35;34.95;;;21.98;;
71730;SDS011;65964;43.496;3.710;2023-03-23T06:26:03;36.60;;;22.42;;
71730;SDS011;65964;43.496;3.710;2023-03-23T06:28:30;41.72;;;22.83;;
71730;SDS011;65964;43.496;3.710;2023-03-23T06:31:05;33.10;;;21.52;;
71730;SDS011;65964;43.496;3.710;2023-03-23T06:33:36;35.55;;;22.48;;
71730;SDS011;65964;43.496;3.710;2023-03-23T06:36:02;38.45;;;22.60;;
71730;SDS011;65964;43.496;3.710;2023-03-23T06:38:29;34.90;;;21.65;;
71730;SDS011;65964;43.496;3.710;2023-03-23T06:40:55;32.47;;;20.08;;
71730;SDS011;65964;43.496;3.710;2023-03-23T06:43:22;33.65;;;21.27;;
71730;SDS011;65964;43.496;3.710;2023-03-23T06:45:48;34.92;;;20.95;;
71730;SDS011;65964;43.496;3.710;2023-03-23T06:48:14;34.88;;;22.05;;
71730;SDS011;65964;43.496;3.710;2023-03-23T06:50:43;32.72;;;20.80;;
71730;SDS011;65964;43.496;3.710;2023-03-23T06:53:09;32.95;;;21.17;;
71730;SDS011;65964;43.496;3.710;2023-03-23T06:55:35;31.58;;;19.92;;
71730;SDS011;65964;43.496;3.710;2023-03-23T06:58:02;35.50;;;20.50;;
71730;SDS011;65964;43.496;3.710;2023-03-23T07:00:29;37.45;;;20.80;;
71730;SDS011;65964;43.496;3.710;2023-03-23T07:02:55;32.83;;;19.85;;
71730;SDS011;65964;43.496;3.710;2023-03-23T07:05:21;39.38;;;22.25;;
71730;SDS011;65964;43.496;3.710;2023-03-23T07:07:47;30.73;;;20.27;;
71730;SDS011;65964;43.496;3.710;2023-03-23T07:10:13;42.67;;;21.52;;
71730;SDS011;65964;43.496;3.710;2023-03-23T07:12:39;31.27;;;20.30;;
71730;SDS011;65964;43.496;3.710;2023-03-23T07:15:07;34.50;;;21.45;;
71730;SDS011;65964;43.496;3.710;2023-03-23T07:17:35;38.72;;;21.42;;
71730;SDS011;65964;43.496;3.710;2023-03-23T07:20:01;31.52;;;19.38;;
71730;SDS011;65964;43.496;3.710;2023-03-23T07:22:27;34.95;;;20.00;;
71730;SDS011;65964;43.496;3.710;2023-03-23T07:24:53;28.77;;;19.45;;
71730;SDS011;65964;43.496;3.710;2023-03-23T07:27:20;35.70;;;21.13;;
71730;SDS011;65964;43.496;3.710;2023-03-23T07:29:46;30.98;;;19.88;;
71730;SDS011;65964;43.496;3.710;2023-03-23T07:32:12;32.83;;;20.52;;
71730;SDS011;65964;43.496;3.710;2023-03-23T07:34:38;34.33;;;20.15;;
71730;SDS011;65964;43.496;3.710;2023-03-23T07:37:05;29.42;;;18.83;;
71730;SDS011;65964;43.496;3.710;2023-03-23T07:39:31;31.17;;;19.48;;
71730;SDS011;65964;43.496;3.710;2023-03-23T07:41:58;31.60;;;19.02;;
71730;SDS011;65964;43.496;3.710;2023-03-23T07:44:24;28.75;;;19.10;;
71730;SDS011;65964;43.496;3.710;2023-03-23T07:46:50;31.92;;;18.42;;
71730;SDS011;65964;43.496;3.710;2023-03-23T07:49:16;31.85;;;20.05;;
71730;SDS011;65964;43.496;3.710;2023-03-23T07:51:43;31.27;;;18.42;;
71730;SDS011;65964;43.496;3.710;2023-03-23T07:54:09;35.90;;;20.30;;
71730;SDS011;65964;43.496;3.710;2023-03-23T07:56:37;31.25;;;19.13;;
71730;SDS011;65964;43.496;3.710;2023-03-23T07:59:06;29.60;;;19.67;;
71730;SDS011;65964;43.496;3.710;2023-03-23T08:01:32;27.52;;;19.83;;
71730;SDS011;65964;43.496;3.710;2023-03-23T08:03:59;32.92;;;19.90;;
71730;SDS011;65964;43.496;3.710;2023-03-23T08:06:25;29.88;;;19.02;;
71730;SDS011;65964;43.496;3.710;2023-03-23T08:08:52;30.30;;;20.60;;
71730;SDS011;65964;43.496;3.710;2023-03-23T08:11:18;42.30;;;21.35;;
71730;SDS011;65964;43.496;3.710;2023-03-23T08:13:45;28.75;;;18.63;;
71730;SDS011;65964;43.496;3.710;2023-03-23T08:16:11;30.65;;;19.48;;
71730;SDS011;65964;43.496;3.710;2023-03-23T08:18:38;32.50;;;19.35;;
71730;SDS011;65964;43.496;3.710;2023-03-23T08:21:05;33.28;;;19.23;;
71730;SDS011;65964;43.496;3.710;2023-03-23T08:23:33;34.00;;;20.40;;
71730;SDS011;65964;43.496;3.710;2023-03-23T08:25:59;31.08;;;19.05;;
71730;SDS011;65964;43.496;3.710;2023-03-23T08:28:25;27.52;;;19.30;;
71730;SDS011;65964;43.496;3.710;2023-03-23T08:30:52;29.70;;;19.40;;
71730;SDS011;65964;43.496;3.710;2023-03-23T08:33:18;31.73;;;19.60;;
71730;SDS011;65964;43.496;3.710;2023-03-23T08:35:53;32.90;;;19.13;;
71730;SDS011;65964;43.496;3.710;2023-03-23T08:38:19;32.72;;;17.95;;
71730;SDS011;65964;43.496;3.710;2023-03-23T08:40:46;26.98;;;16.50;;
71730;SDS011;65964;43.496;3.710;2023-03-23T08:43:13;25.92;;;15.98;;
71730;SDS011;65964;43.496;3.710;2023-03-23T08:45:40;30.27;;;16.17;;
71730;SDS011;65964;43.496;3.710;2023-03-23T08:48:06;25.08;;;15.30;;
71730;SDS011;65964;43.496;3.710;2023-03-23T08:50:33;25.35;;;15.50;;
71730;SDS011;65964;43.496;3.710;2023-03-23T08:53:00;26.83;;;15.38;;
71730;SDS011;65964;43.496;3.710;2023-03-23T08:55:26;27.40;;;15.80;;
71730;SDS011;65964;43.496;3.710;2023-03-23T08:57:52;25.27;;;15.80;;
71730;SDS011;65964;43.496;3.710;2023-03-23T09:00:19;31.80;;;16.55;;
71730;SDS011;65964;43.496;3.710;2023-03-23T09:02:46;25.35;;;16.08;;
71730;SDS011;65964;43.496;3.710;2023-03-23T09:05:13;21.52;;;14.63;;
71730;SDS011;65964;43.496;3.710;2023-03-23T09:07:41;25.98;;;14.82;;
71730;SDS011;65964;43.496;3.710;2023-03-23T09:10:07;33.65;;;16.58;;
71730;SDS011;65964;43.496;3.710;2023-03-23T09:12:33;25.15;;;15.73;;
71730;SDS011;65964;43.496;3.710;2023-03-23T09:15:00;21.23;;;15.07;;
71730;SDS011;65964;43.496;3.710;2023-03-23T09:17:30;23.67;;;14.98;;
71730;SDS011;65964;43.496;3.710;2023-03-23T09:19:56;25.38;;;15.73;;
71730;SDS011;65964;43.496;3.710;2023-03-23T09:22:23;27.17;;;14.73;;
71730;SDS011;65964;43.496;3.710;2023-03-23T09:24:49;23.55;;;14.93;;
71730;SDS011;65964;43.496;3.710;2023-03-23T09:27:17;26.15;;;15.00;;
71730;SDS011;65964;43.496;3.710;2023-03-23T09:29:44;22.55;;;14.45;;
71730;SDS011;65964;43.496;3.710;2023-03-23T09:32:11;24.98;;;15.15;;
71730;SDS011;65964;43.496;3.710;2023-03-23T09:34:38;26.50;;;17.48;;
71730;SDS011;65964;43.496;3.710;2023-03-23T09:37:04;33.30;;;19.98;;
71730;SDS011;65964;43.496;3.710;2023-03-23T09:39:31;20.45;;;14.38;;
71730;SDS011;65964;43.496;3.710;2023-03-23T09:42:07;21.30;;;14.68;;
71730;SDS011;65964;43.496;3.710;2023-03-23T09:44:41;54.45;;;31.83;;
71730;SDS011;65964;43.496;3.710;2023-03-23T09:47:22;37.97;;;23.70;;
71730;SDS011;65964;43.496;3.710;2023-03-23T09:50:11;30.13;;;19.67;;
71730;SDS011;65964;43.496;3.710;2023-03-23T09:55:02;24.73;;;16.15;;
71730;SDS011;65964;43.496;3.710;2023-03-23T10:00:24;24.10;;;14.13;;
71730;SDS011;65964;43.496;3.710;2023-03-23T10:05:31;22.00;;;13.00;;
71730;SDS011;65964;43.496;3.710;2023-03-23T10:07:58;21.45;;;12.98;;
71730;SDS011;65964;43.496;3.710;2023-03-23T10:10:50;23.60;;;12.85;;
71730;SDS011;65964;43.496;3.710;2023-03-23T10:13:14;24.05;;;13.00;;
71730;SDS011;65964;43.496;3.710;2023-03-23T10:15:44;19.13;;;12.77;;
71730;SDS011;65964;43.496;3.710;2023-03-23T10:18:20;23.08;;;13.18;;
71730;SDS011;65964;43.496;3.710;2023-03-23T10:20:53;22.38;;;11.75;;
71730;SDS011;65964;43.496;3.710;2023-03-23T10:26:04;26.48;;;17.40;;
71730;SDS011;65964;43.496;3.710;2023-03-23T10:28:46;22.40;;;14.27;;
71730;SDS011;65964;43.496;3.710;2023-03-23T10:31:18;20.60;;;14.20;;
71730;SDS011;65964;43.496;3.710;2023-03-23T10:33:45;22.08;;;13.98;;
71730;SDS011;65964;43.496;3.710;2023-03-23T10:41:34;26.27;;;13.80;;
71730;SDS011;65964;43.496;3.710;2023-03-23T10:44:01;17.45;;;10.68;;
71730;SDS011;65964;43.496;3.710;2023-03-23T10:48:56;15.25;;;8.80;;
71730;SDS011;65964;43.496;3.710;2023-03-23T10:51:27;15.38;;;8.95;;
71730;SDS011;65964;43.496;3.710;2023-03-23T10:53:58;19.88;;;8.98;;
71730;SDS011;65964;43.496;3.710;2023-03-23T10:56:25;18.00;;;8.05;;
71730;SDS011;65964;43.496;3.710;2023-03-23T10:58:52;17.10;;;8.80;;
71730;SDS011;65964;43.496;3.710;2023-03-23T11:01:19;15.35;;;9.15;;
71730;SDS011;65964;43.496;3.710;2023-03-23T11:03:46;17.55;;;9.63;;
71730;SDS011;65964;43.496;3.710;2023-03-23T11:06:20;20.10;;;10.00;;
71730;SDS011;65964;43.496;3.710;2023-03-23T11:09:33;17.92;;;9.50;;
71730;SDS011;65964;43.496;3.710;2023-03-23T11:11:37;15.05;;;9.23;;
71730;SDS011;65964;43.496;3.710;2023-03-23T11:14:17;15.48;;;9.00;;
71730;SDS011;65964;43.496;3.710;2023-03-23T11:16:57;18.42;;;8.02;;
71730;SDS011;65964;43.496;3.710;2023-03-23T11:19:30;14.50;;;8.05;;
71730;SDS011;65964;43.496;3.710;2023-03-23T11:26:58;14.23;;;8.20;;
71730;SDS011;65964;43.496;3.710;2023-03-23T11:29:25;21.02;;;9.40;;
71730;SDS011;65964;43.496;3.710;2023-03-23T11:31:52;21.25;;;9.20;;
71730;SDS011;65964;43.496;3.710;2023-03-23T11:39:29;15.95;;;8.85;;
71730;SDS011;65964;43.496;3.710;2023-03-23T11:41:57;14.13;;;7.80;;
71730;SDS011;65964;43.496;3.710;2023-03-23T11:44:24;12.90;;;6.85;;
71730;SDS011;65964;43.496;3.710;2023-03-23T11:49:29;12.90;;;4.82;;
71730;SDS011;65964;43.496;3.710;2023-03-23T11:52:20;12.88;;;4.40;;
71730;SDS011;65964;43.496;3.710;2023-03-23T11:54:50;13.48;;;4.30;;
71730;SDS011;65964;43.496;3.710;2023-03-23T11:57:18;11.90;;;4.38;;
71730;SDS011;65964;43.496;3.710;2023-03-23T11:59:44;10.07;;;4.22;;
71730;SDS011;65964;43.496;3.710;2023-03-23T12:02:32;14.70;;;4.10;;
71730;SDS011;65964;43.496;3.710;2023-03-23T12:07:39;11.68;;;3.80;;
71730;SDS011;65964;43.496;3.710;2023-03-23T12:10:14;10.10;;;4.10;;
71730;SDS011;65964;43.496;3.710;2023-03-23T12:13:03;12.32;;;4.40;;
71730;SDS011;65964;43.496;3.710;2023-03-23T12:44:06;13.30;;;3.55;;
71730;SDS011;65964;43.496;3.710;2023-03-23T12:49:25;12.68;;;3.90;;
71730;SDS011;65964;43.496;3.710;2023-03-23T12:51:59;16.85;;;6.43;;
71730;SDS011;65964;43.496;3.710;2023-03-23T12:56:55;15.82;;;4.20;;
71730;SDS011;65964;43.496;3.710;2023-03-23T12:59:36;13.63;;;3.60;;
71730;SDS011;65964;43.496;3.710;2023-03-23T13:02:07;12.88;;;3.78;;
71730;SDS011;65964;43.496;3.710;2023-03-23T13:04:38;13.55;;;4.00;;
71730;SDS011;65964;43.496;3.710;2023-03-23T13:07:05;12.35;;;3.45;;
71730;SDS011;65964;43.496;3.710;2023-03-23T13:12:12;14.77;;;3.80;;
71730;SDS011;65964;43.496;3.710;2023-03-23T13:22:11;13.85;;;4.35;;
71730;SDS011;65964;43.496;3.710;2023-03-23T13:24:41;15.02;;;4.50;;
71730;SDS011;65964;43.496;3.710;2023-03-23T13:27:08;14.45;;;5.03;;
71730;SDS011;65964;43.496;3.710;2023-03-23T13:29:42;20.20;;;6.75;;
71730;SDS011;65964;43.496;3.710;2023-03-23T13:32:15;14.18;;;6.32;;
71730;SDS011;65964;43.496;3.710;2023-03-23T13:34:41;19.60;;;9.93;;
71730;SDS011;65964;43.496;3.710;2023-03-23T13:37:22;18.98;;;9.77;;
71730;SDS011;65964;43.496;3.710;2023-03-23T13:39:53;22.05;;;12.07;;
71730;SDS011;65964;43.496;3.710;2023-03-23T13:42:30;19.27;;;10.98;;
71730;SDS011;65964;43.496;3.710;2023-03-23T13:47:44;29.25;;;14.88;;
71730;SDS011;65964;43.496;3.710;2023-03-23T14:02:48;26.17;;;12.05;;
71730;SDS011;65964;43.496;3.710;2023-03-23T14:07:57;30.02;;;12.63;;
71730;SDS011;65964;43.496;3.710;2023-03-23T14:10:35;20.05;;;11.40;;
71730;SDS011;65964;43.496;3.710;2023-03-23T14:13:03;21.52;;;11.68;;
71730;SDS011;65964;43.496;3.710;2023-03-23T14:15:30;18.67;;;10.88;;
71730;SDS011;65964;43.496;3.710;2023-03-23T14:17:56;20.50;;;11.18;;
71730;SDS011;65964;43.496;3.710;2023-03-23T14:20:25;20.45;;;10.70;;
71730;SDS011;65964;43.496;3.710;2023-03-23T14:22:55;20.55;;;11.32;;
71730;SDS011;65964;43.496;3.710;2023-03-23T14:25:22;24.35;;;11.73;;
71730;SDS011;65964;43.496;3.710;2023-03-23T14:27:50;17.13;;;9.93;;
71730;SDS011;65964;43.496;3.710;2023-03-23T14:30:18;23.25;;;11.60;;
71730;SDS011;65964;43.496;3.710;2023-03-23T14:32:44;19.35;;;11.05;;
71730;SDS011;65964;43.496;3.710;2023-03-23T14:35:33;19.80;;;11.05;;
71730;SDS011;65964;43.496;3.710;2023-03-23T14:37:57;24.42;;;11.77;;
71730;SDS011;65964;43.496;3.710;2023-03-23T14:40:25;23.55;;;10.82;;
71730;SDS011;65964;43.496;3.710;2023-03-23T14:42:52;22.38;;;11.38;;
71730;SDS011;65964;43.496;3.710;2023-03-23T14:45:20;23.00;;;10.93;;
71730;SDS011;65964;43.496;3.710;2023-03-23T14:50:58;20.77;;;12.18;;
71730;SDS011;65964;43.496;3.710;2023-03-23T14:53:13;22.50;;;11.98;;
71730;SDS011;65964;43.496;3.710;2023-03-23T14:55:42;24.63;;;11.70;;
71730;SDS011;65964;43.496;3.710;2023-03-23T14:58:12;20.35;;;12.00;;
71730;SDS011;65964;43.496;3.710;2023-03-23T15:00:40;23.23;;;12.40;;
71730;SDS011;65964;43.496;3.710;2023-03-23T15:03:10;23.55;;;12.00;;
71730;SDS011;65964;43.496;3.710;2023-03-23T15:05:37;21.65;;;11.57;;
71730;SDS011;65964;43.496;3.710;2023-03-23T15:08:06;21.33;;;11.52;;
71730;SDS011;65964;43.496;3.710;2023-03-23T15:10:33;20.45;;;12.40;;
71730;SDS011;65964;43.496;3.710;2023-03-23T15:12:59;21.42;;;12.85;;
71730;SDS011;65964;43.496;3.710;2023-03-23T15:15:27;24.05;;;12.77;;
71730;SDS011;65964;43.496;3.710;2023-03-23T15:17:53;31.45;;;12.57;;
71730;SDS011;65964;43.496;3.710;2023-03-23T15:22:49;19.80;;;12.18;;
71730;SDS011;65964;43.496;3.710;2023-03-23T15:32:51;27.77;;;13.50;;
71730;SDS011;65964;43.496;3.710;2023-03-23T15:35:18;22.27;;;12.77;;
71730;SDS011;65964;43.496;3.710;2023-03-23T15:37:47;23.05;;;12.27;;
71730;SDS011;65964;43.496;3.710;2023-03-23T15:40:14;23.42;;;11.90;;
71730;SDS011;65964;43.496;3.710;2023-03-23T15:42:41;22.13;;;12.50;;
71730;SDS011;65964;43.496;3.710;2023-03-23T15:50:07;23.55;;;13.18;;
71730;SDS011;65964;43.496;3.710;2023-03-23T15:52:34;28.33;;;13.20;;
71730;SDS011;65964;43.496;3.710;2023-03-23T15:55:00;26.75;;;13.48;;
71730;SDS011;65964;43.496;3.710;2023-03-23T15:57:26;26.45;;;12.43;;
71730;SDS011;65964;43.496;3.710;2023-03-23T15:59:52;24.92;;;13.50;;
71730;SDS011;65964;43.496;3.710;2023-03-23T16:02:20;29.90;;;12.82;;
71730;SDS011;65964;43.496;3.710;2023-03-23T16:04:47;23.75;;;12.02;;
71730;SDS011;65964;43.496;3.710;2023-03-23T16:07:13;26.77;;;10.90;;
71730;SDS011;65964;43.496;3.710;2023-03-23T16:09:39;23.90;;;10.95;;
71730;SDS011;65964;43.496;3.710;2023-03-23T16:12:11;29.02;;;13.30;;
71730;SDS011;65964;43.496;3.710;2023-03-23T16:14:38;23.70;;;10.52;;
71730;SDS011;65964;43.496;3.710;2023-03-23T16:17:04;20.58;;;10.27;;
71730;SDS011;65964;43.496;3.710;2023-03-23T16:19:31;24.85;;;10.10;;
71730;SDS011;65964;43.496;3.710;2023-03-23T16:21:57;27.55;;;13.20;;
71730;SDS011;65964;43.496;3.710;2023-03-23T16:24:23;24.60;;;11.25;;
71730;SDS011;65964;43.496;3.710;2023-03-23T16:26:49;18.55;;;8.82;;
71730;SDS011;65964;43.496;3.710;2023-03-23T16:29:15;16.35;;;5.40;;
71730;SDS011;65964;43.496;3.710;2023-03-23T16:31:42;14.68;;;5.95;;
71730;SDS011;65964;43.496;3.710;2023-03-23T16:34:08;14.05;;;5.45;;
71730;SDS011;65964;43.496;3.710;2023-03-23T16:36:34;15.90;;;4.80;;
71730;SDS011;65964;43.496;3.710;2023-03-23T16:39:00;12.75;;;4.07;;
71730;SDS011;65964;43.496;3.710;2023-03-23T16:41:26;10.32;;;3.40;;
71730;SDS011;65964;43.496;3.710;2023-03-23T16:43:52;12.52;;;4.07;;